createdAt,value
2018-07-17T00:00:16.256Z,2.97
2018-07-17T00:02:44.700Z,3.27
2018-07-17T00:05:13.117Z,3.63
2018-07-17T00:07:41.558Z,2.90
2018-07-17T00:10:10.012Z,3.20
2018-07-17T00:12:38.696Z,3.23
2018-07-17T00:15:07.115Z,2.93
2018-07-17T00:17:35.787Z,3.03
2018-07-17T00:20:04.254Z,3.10
2018-07-17T00:22:32.655Z,3.33
2018-07-17T00:25:01.137Z,4.37
2018-07-17T00:27:29.513Z,2.73
2018-07-17T00:29:57.894Z,3.30
2018-07-17T00:32:26.345Z,3.90
2018-07-17T00:34:54.776Z,3.40
2018-07-17T00:37:23.144Z,2.93
2018-07-17T00:39:51.544Z,3.57
2018-07-17T00:42:20.060Z,3.40
2018-07-17T00:44:48.552Z,3.80
2018-07-17T00:47:16.955Z,3.20
2018-07-17T00:49:45.376Z,3.60
2018-07-17T00:52:13.745Z,3.87
2018-07-17T00:54:42.219Z,4.00
2018-07-17T00:57:10.596Z,4.23
2018-07-17T00:59:38.987Z,3.80
2018-07-17T01:02:12.668Z,3.93
2018-07-17T01:04:46.297Z,3.67
2018-07-17T01:07:19.977Z,3.97
2018-07-17T01:09:53.732Z,3.90
2018-07-17T01:12:21.346Z,3.77
2018-07-17T01:15:27.031Z,4.00
2018-07-17T01:17:55.471Z,4.77
2018-07-17T01:20:23.991Z,4.27
2018-07-17T01:22:52.435Z,4.10
2018-07-17T01:25:20.963Z,4.60
2018-07-17T01:27:49.517Z,4.33
2018-07-17T01:30:17.920Z,4.67
2018-07-17T01:32:46.305Z,5.40
2018-07-17T01:35:14.680Z,5.03
2018-07-17T01:37:43.046Z,5.10
2018-07-17T01:40:11.483Z,5.50
2018-07-17T01:42:39.876Z,5.60
2018-07-17T01:45:08.334Z,5.47
2018-07-17T01:47:36.720Z,5.50
2018-07-17T01:50:05.234Z,5.30
2018-07-17T01:52:33.657Z,5.50
2018-07-17T01:55:02.059Z,5.50
2018-07-17T01:57:30.476Z,4.80
2018-07-17T01:59:58.881Z,4.87
2018-07-17T02:02:27.247Z,5.07
2018-07-17T02:04:55.765Z,4.57
2018-07-17T02:07:24.191Z,4.67
2018-07-17T02:09:52.604Z,4.57
2018-07-17T02:12:21.016Z,4.60
2018-07-17T02:14:49.431Z,4.80
2018-07-17T02:17:17.830Z,5.23
2018-07-17T02:19:46.269Z,4.60
2018-07-17T02:22:14.676Z,5.27
2018-07-17T02:24:43.219Z,5.10
2018-07-17T02:27:11.627Z,4.57
2018-07-17T02:29:40.017Z,5.10
2018-07-17T02:32:08.449Z,4.60
2018-07-17T02:34:36.845Z,4.53
2018-07-17T02:37:05.564Z,4.97
2018-07-17T02:39:33.943Z,4.90
2018-07-17T02:42:02.537Z,4.00
2018-07-17T02:44:30.908Z,4.80
2018-07-17T02:46:59.308Z,5.03
2018-07-17T02:49:27.705Z,4.77
2018-07-17T02:51:56.104Z,4.67
2018-07-17T02:54:24.468Z,5.17
2018-07-17T02:56:52.898Z,4.67
2018-07-17T02:59:21.906Z,4.43
2018-07-17T03:01:50.455Z,5.03
2018-07-17T03:04:18.967Z,4.83
2018-07-17T03:06:47.564Z,5.00
2018-07-17T03:09:16.022Z,4.67
2018-07-17T03:11:44.473Z,4.90
2018-07-17T03:14:12.927Z,5.60
2018-07-17T03:16:41.447Z,5.90
2018-07-17T03:19:09.974Z,6.60
2018-07-17T03:21:38.916Z,6.80
2018-07-17T03:24:07.385Z,8.27
2018-07-17T03:26:36.188Z,8.67
2018-07-17T03:29:04.587Z,9.30
2018-07-17T03:31:33.027Z,9.90
2018-07-17T03:34:02.208Z,9.97
2018-07-17T03:36:30.765Z,9.77
2018-07-17T03:38:59.119Z,11.10
2018-07-17T03:41:27.562Z,9.97
2018-07-17T03:43:56.021Z,10.37
2018-07-17T03:46:24.579Z,11.30
2018-07-17T03:48:53.065Z,9.33
2018-07-17T03:51:21.640Z,11.70
2018-07-17T03:53:50.070Z,9.63
2018-07-17T03:56:18.541Z,10.77
2018-07-17T03:58:46.934Z,10.97
2018-07-17T04:01:15.295Z,9.50
2018-07-17T04:03:43.780Z,10.13
2018-07-17T04:06:12.163Z,9.90
2018-07-17T04:08:40.610Z,11.53
2018-07-17T04:11:08.936Z,10.80
2018-07-17T04:13:37.331Z,9.70
2018-07-17T04:16:05.707Z,10.37
2018-07-17T04:18:34.124Z,11.07
2018-07-17T04:21:02.535Z,11.80
2018-07-17T04:23:30.991Z,11.53
2018-07-17T04:25:59.391Z,10.07
2018-07-17T04:28:27.767Z,10.63
2018-07-17T04:30:56.207Z,11.90
2018-07-17T04:33:24.589Z,10.90
2018-07-17T04:35:53.271Z,12.03
2018-07-17T04:38:21.799Z,11.00
2018-07-17T04:40:50.160Z,11.40
2018-07-17T04:43:18.597Z,11.87
2018-07-17T04:45:47.133Z,10.77
2018-07-17T04:48:15.720Z,11.83
2018-07-17T04:50:44.332Z,10.73
2018-07-17T04:53:12.822Z,11.20
2018-07-17T04:55:41.396Z,10.50
2018-07-17T04:58:09.739Z,10.90
2018-07-17T05:00:38.183Z,8.83
2018-07-17T05:03:06.606Z,10.10
2018-07-17T05:05:34.968Z,11.30
2018-07-17T05:08:03.411Z,10.20
2018-07-17T05:10:31.852Z,11.67
2018-07-17T05:13:00.383Z,10.37
2018-07-17T05:15:28.719Z,11.07
2018-07-17T05:17:57.111Z,9.70
2018-07-17T05:20:25.590Z,9.60
2018-07-17T05:22:54.063Z,10.20
2018-07-17T05:25:22.452Z,9.20
2018-07-17T05:27:50.876Z,9.90
2018-07-17T05:30:19.459Z,9.03
2018-07-17T05:32:47.845Z,8.83
2018-07-17T05:35:16.355Z,8.47
2018-07-17T05:37:44.769Z,7.87
2018-07-17T05:40:13.168Z,8.83
2018-07-17T05:42:41.660Z,8.13
2018-07-17T05:45:10.120Z,7.73
2018-07-17T05:47:40.882Z,7.50
2018-07-17T05:50:10.232Z,6.37
2018-07-17T05:52:38.966Z,6.60
2018-07-17T05:55:07.381Z,6.03
2018-07-17T05:57:35.947Z,6.10
2018-07-17T06:00:05.212Z,5.57
2018-07-17T06:02:33.607Z,4.90
2018-07-17T06:05:02.045Z,4.80
2018-07-17T06:07:30.550Z,4.70
2018-07-17T06:09:58.948Z,4.73
2018-07-17T06:12:27.402Z,4.93
2018-07-17T06:14:55.811Z,5.03
2018-07-17T06:17:24.483Z,5.83
2018-07-17T06:19:53.190Z,6.27
2018-07-17T06:22:21.656Z,7.20
2018-07-17T06:24:50.084Z,7.93
2018-07-17T06:27:18.725Z,7.57
2018-07-17T06:29:47.280Z,9.10
2018-07-17T06:32:16.038Z,8.50
2018-07-17T06:34:44.635Z,10.20
2018-07-17T06:37:13.044Z,9.43
2018-07-17T06:39:41.669Z,9.60
2018-07-17T06:42:10.652Z,10.03
2018-07-17T06:44:39.170Z,9.83
2018-07-17T06:47:07.651Z,9.20
2018-07-17T06:49:36.084Z,9.53
2018-07-17T06:52:04.620Z,8.73
2018-07-17T06:54:33.075Z,10.10
2018-07-17T06:57:01.528Z,9.20
2018-07-17T06:59:29.892Z,10.37
2018-07-17T07:01:58.401Z,10.27
2018-07-17T07:04:26.759Z,9.73
2018-07-17T07:06:55.151Z,10.20
2018-07-17T07:09:23.652Z,9.47
2018-07-17T07:11:52.140Z,10.20
2018-07-17T07:14:20.716Z,10.33
2018-07-17T07:16:49.220Z,9.83
2018-07-17T07:19:17.719Z,9.67
2018-07-17T07:21:46.165Z,9.93
2018-07-17T07:24:14.567Z,9.83
2018-07-17T07:26:42.975Z,9.97
2018-07-17T07:29:11.367Z,9.23
2018-07-17T07:31:39.523Z,9.30
2018-07-17T07:34:07.948Z,9.40
2018-07-17T07:36:36.474Z,8.50
2018-07-17T07:39:07.572Z,9.87
2018-07-17T07:41:36.108Z,9.30
2018-07-17T07:44:04.861Z,8.17
2018-07-17T07:46:33.256Z,7.57
2018-07-17T07:49:01.974Z,7.70
2018-07-17T07:51:30.746Z,6.33
2018-07-17T07:54:05.892Z,5.57
2018-07-17T07:56:34.239Z,4.70
2018-07-17T07:59:02.683Z,4.65
2018-07-17T08:01:31.062Z,4.08
2018-07-17T08:03:59.750Z,5.08
2018-07-17T08:06:28.187Z,5.78
2018-07-17T08:08:56.830Z,5.37
2018-07-17T08:11:25.256Z,4.22
2018-07-17T08:13:53.683Z,4.37
2018-07-17T08:16:22.104Z,3.92
2018-07-17T08:18:50.579Z,4.10
2018-07-17T08:21:18.973Z,3.50
2018-07-17T08:23:47.505Z,3.58
2018-07-17T08:26:15.963Z,3.30
2018-07-17T08:28:44.522Z,3.20
2018-07-17T08:31:13.072Z,3.77
2018-07-17T08:33:41.609Z,3.87
2018-07-17T08:36:10.335Z,3.30
2018-07-17T08:38:38.831Z,4.45
2018-07-17T08:41:07.506Z,3.80
2018-07-17T08:43:35.951Z,4.42
2018-07-17T08:46:04.430Z,4.23
2018-07-17T08:48:32.923Z,4.12
2018-07-17T08:51:01.383Z,3.60
2018-07-17T08:53:29.858Z,3.30
2018-07-17T08:55:58.778Z,2.60
2018-07-17T08:58:27.426Z,2.20
2018-07-17T09:00:55.961Z,2.08
2018-07-17T09:03:24.565Z,1.72
2018-07-17T09:05:53.091Z,1.95
2018-07-17T09:08:21.488Z,1.90
2018-07-17T09:10:50.014Z,2.15
2018-07-17T09:13:18.568Z,2.52
2018-07-17T09:15:47.120Z,2.42
2018-07-17T09:18:15.655Z,2.22
2018-07-17T09:20:44.171Z,2.22
2018-07-17T09:23:12.611Z,1.80
2018-07-17T09:25:41.367Z,1.85
2018-07-17T09:28:09.846Z,1.60
2018-07-17T09:30:43.627Z,1.57
2018-07-17T09:33:12.264Z,1.60
2018-07-17T09:35:40.779Z,1.10
2018-07-17T09:38:09.614Z,1.10
2018-07-17T09:40:38.495Z,1.00
2018-07-17T09:43:07.421Z,1.00
2018-07-17T09:45:36.016Z,1.52
2018-07-17T09:48:04.480Z,1.65
2018-07-17T09:50:33.094Z,1.85
2018-07-17T09:53:01.535Z,1.57
2018-07-17T09:55:30.052Z,2.30
2018-07-17T09:57:58.691Z,2.40
2018-07-17T10:00:32.702Z,2.70
2018-07-17T10:03:01.235Z,3.07
2018-07-17T10:05:29.806Z,2.90
2018-07-17T10:07:58.251Z,2.60
2018-07-17T10:10:26.754Z,3.20
2018-07-17T10:12:55.211Z,2.80
2018-07-17T10:15:23.663Z,2.67
2018-07-17T10:17:52.172Z,3.10
2018-07-17T10:20:20.617Z,2.93
2018-07-17T10:22:48.773Z,3.63
2018-07-17T10:25:17.450Z,3.63
2018-07-17T10:27:46.078Z,3.40
2018-07-17T10:30:14.584Z,3.30
2018-07-17T10:32:46.151Z,3.07
2018-07-17T10:35:14.916Z,3.03
2018-07-17T10:37:43.388Z,3.57
2018-07-17T10:40:11.841Z,2.90
2018-07-17T10:42:40.248Z,2.60
2018-07-17T10:45:08.731Z,3.00
2018-07-17T10:47:37.363Z,2.20
2018-07-17T10:50:05.800Z,2.93
2018-07-17T10:52:34.313Z,3.10
2018-07-17T10:55:02.729Z,2.40
2018-07-17T10:57:31.270Z,2.47
2018-07-17T10:59:59.676Z,2.30
2018-07-17T11:02:28.132Z,2.70
2018-07-17T11:04:56.562Z,2.80
2018-07-17T11:07:25.016Z,3.03
2018-07-17T11:09:53.427Z,2.70
2018-07-17T11:12:21.584Z,2.60
2018-07-17T11:14:50.145Z,1.80
2018-07-17T11:17:18.664Z,2.60
2018-07-17T11:19:47.079Z,3.53
2018-07-17T11:22:15.573Z,2.27
2018-07-17T11:24:44.191Z,2.20
2018-07-17T11:27:12.635Z,2.80
2018-07-17T11:29:41.073Z,2.93
2018-07-17T11:32:09.975Z,2.00
2018-07-17T11:34:38.395Z,1.90
2018-07-17T11:37:07.005Z,1.97
2018-07-17T11:39:35.375Z,2.30
2018-07-17T11:42:03.911Z,2.67
2018-07-17T11:44:32.392Z,2.10
2018-07-17T11:47:00.847Z,2.27
2018-07-17T11:49:28.943Z,2.10
2018-07-17T11:51:59.458Z,2.60
2018-07-17T11:54:28.035Z,2.27
2018-07-17T11:56:56.501Z,2.80
2018-07-17T11:59:25.334Z,2.77
2018-07-17T12:01:55.325Z,2.50
2018-07-17T12:04:23.802Z,2.37
2018-07-17T12:06:52.333Z,2.63
2018-07-17T12:09:20.779Z,2.13
2018-07-17T12:11:49.405Z,2.43
2018-07-17T12:14:17.833Z,2.60
2018-07-17T12:16:46.383Z,2.67
2018-07-17T12:19:14.885Z,2.27
2018-07-17T12:21:43.340Z,2.60
2018-07-17T12:24:12.182Z,2.63
2018-07-17T12:26:40.703Z,2.40
2018-07-17T12:29:09.124Z,2.63
2018-07-17T12:31:37.660Z,2.60
2018-07-17T12:34:06.162Z,2.53
2018-07-17T12:36:34.692Z,2.47
2018-07-17T12:39:03.238Z,2.43
2018-07-17T12:41:31.766Z,2.37
2018-07-17T12:44:00.215Z,2.63
2018-07-17T12:46:28.696Z,2.50
2018-07-17T12:48:56.855Z,2.63
2018-07-17T12:51:25.493Z,2.40
2018-07-17T12:53:53.981Z,2.20
2018-07-17T12:56:22.488Z,2.97
2018-07-17T12:58:50.921Z,2.27
2018-07-17T13:01:19.303Z,2.70
2018-07-17T13:03:47.723Z,2.20
2018-07-17T13:06:16.106Z,2.43
2018-07-17T13:08:46.699Z,3.00
2018-07-17T13:11:15.139Z,2.70
2018-07-17T13:13:43.612Z,2.67
2018-07-17T13:16:12.072Z,2.17
2018-07-17T13:18:40.807Z,2.57
2018-07-17T13:21:10.015Z,2.27
2018-07-17T13:23:38.507Z,2.40
2018-07-17T13:26:07.442Z,2.10
2018-07-17T13:28:35.911Z,2.60
2018-07-17T13:31:04.342Z,2.40
2018-07-17T13:33:32.852Z,2.60
2018-07-17T13:36:01.409Z,3.13
2018-07-17T13:38:29.812Z,2.47
2018-07-17T13:40:58.485Z,2.30
2018-07-17T13:43:26.931Z,2.30
2018-07-17T13:45:55.352Z,2.43
2018-07-17T13:48:23.923Z,2.33
2018-07-17T13:50:52.692Z,2.00
2018-07-17T13:53:21.139Z,2.63
2018-07-17T13:55:49.604Z,2.40
2018-07-17T13:58:18.052Z,2.53
2018-07-17T14:00:46.613Z,2.40
2018-07-17T14:03:15.093Z,2.47
2018-07-17T14:05:44.068Z,2.57
2018-07-17T14:08:12.618Z,2.50
2018-07-17T14:10:41.077Z,2.40
2018-07-17T14:13:09.423Z,2.50
2018-07-17T14:15:37.947Z,2.10
2018-07-17T14:18:06.356Z,2.37
2018-07-17T14:20:34.816Z,2.63
2018-07-17T14:23:03.308Z,2.70
2018-07-17T14:25:32.049Z,2.93
2018-07-17T14:28:00.518Z,2.90
2018-07-17T14:30:28.998Z,2.60
2018-07-17T14:32:57.436Z,2.50
2018-07-17T14:35:25.879Z,2.63
2018-07-17T14:38:00.661Z,2.43
2018-07-17T14:40:29.564Z,2.30
2018-07-17T14:42:58.090Z,2.70
2018-07-17T14:45:26.518Z,2.53
2018-07-17T14:47:54.906Z,2.50
2018-07-17T14:50:23.316Z,2.10
2018-07-17T14:52:51.705Z,2.37
2018-07-17T14:55:20.248Z,2.50
2018-07-17T14:57:48.665Z,3.40
2018-07-17T15:00:17.314Z,4.40
2018-07-17T15:02:45.776Z,5.83
2018-07-17T15:05:14.424Z,6.77
2018-07-17T15:07:42.864Z,5.03
2018-07-17T15:10:11.115Z,3.77
2018-07-17T15:12:39.606Z,4.20
2018-07-17T15:15:09.061Z,3.13
2018-07-17T15:17:37.602Z,3.80
2018-07-17T15:20:06.261Z,3.47
2018-07-17T15:22:34.704Z,3.73
2018-07-17T15:25:03.356Z,4.30
2018-07-17T15:27:31.978Z,3.97
2018-07-17T15:30:00.403Z,3.93
2018-07-17T15:32:28.869Z,3.30
2018-07-17T15:34:57.409Z,3.63
2018-07-17T15:37:25.828Z,4.20
2018-07-17T15:39:54.244Z,4.60
2018-07-17T15:42:22.773Z,4.27
2018-07-17T15:44:51.246Z,3.67
2018-07-17T15:47:19.698Z,4.43
2018-07-17T15:49:48.166Z,3.43
2018-07-17T15:52:16.632Z,4.10
2018-07-17T15:54:45.097Z,3.50
2018-07-17T15:57:13.576Z,3.67
2018-07-17T15:59:42.027Z,3.80
2018-07-17T16:02:10.861Z,3.80
2018-07-17T16:04:39.302Z,3.70
2018-07-17T16:07:07.801Z,3.50
2018-07-17T16:09:36.519Z,3.80
2018-07-17T16:12:05.413Z,3.37
2018-07-17T16:14:33.870Z,3.33
2018-07-17T16:17:01.948Z,3.47
2018-07-17T16:19:30.439Z,3.77
2018-07-17T16:21:58.684Z,3.97
2018-07-17T16:24:27.370Z,3.60
2018-07-17T16:26:56.065Z,3.90
2018-07-17T16:29:24.711Z,3.97
2018-07-17T16:31:53.137Z,3.93
2018-07-17T16:34:21.551Z,4.07
2018-07-17T16:36:50.445Z,4.40
2018-07-17T16:39:18.963Z,3.63
2018-07-17T16:41:47.484Z,3.70
2018-07-17T16:44:16.063Z,4.30
2018-07-17T16:46:44.578Z,3.77
2018-07-17T16:49:13.100Z,4.13
2018-07-17T16:51:42.174Z,3.70
2018-07-17T16:54:10.849Z,3.67
2018-07-17T16:56:39.327Z,4.03
2018-07-17T16:59:07.755Z,3.10
2018-07-17T17:01:36.249Z,3.40
2018-07-17T17:04:05.176Z,3.10
2018-07-17T17:06:33.900Z,3.00
2018-07-17T17:09:02.538Z,3.40
2018-07-17T17:11:31.026Z,3.50
2018-07-17T17:13:59.426Z,3.57
2018-07-17T17:16:27.887Z,3.53
2018-07-17T17:18:56.319Z,3.10
2018-07-17T17:21:25.021Z,3.13
2018-07-17T17:23:53.547Z,3.03
2018-07-17T17:26:22.117Z,3.17
2018-07-17T17:28:50.594Z,2.47
2018-07-17T17:31:19.296Z,2.80
2018-07-17T17:33:47.803Z,2.60
2018-07-17T17:36:16.339Z,2.57
2018-07-17T17:38:44.716Z,2.27
2018-07-17T17:41:13.279Z,2.40
2018-07-17T17:43:41.843Z,2.40
2018-07-17T17:46:10.385Z,2.73
2018-07-17T17:48:39.068Z,3.33
2018-07-17T17:51:07.812Z,2.43
2018-07-17T17:53:36.328Z,2.53
2018-07-17T17:56:04.752Z,2.30
2018-07-17T17:58:33.277Z,2.30
2018-07-17T18:01:01.721Z,2.50
2018-07-17T18:03:30.192Z,2.70
2018-07-17T18:05:58.662Z,2.20
2018-07-17T18:08:27.159Z,2.80
2018-07-17T18:10:56.097Z,2.87
2018-07-17T18:13:24.668Z,2.83
2018-07-17T18:15:53.078Z,3.30
2018-07-17T18:18:21.823Z,3.57
2018-07-17T18:20:50.284Z,4.80
2018-07-17T18:23:18.681Z,4.97
2018-07-17T18:25:47.135Z,4.20
2018-07-17T18:28:15.611Z,3.83
2018-07-17T18:30:44.124Z,4.90
2018-07-17T18:33:12.583Z,4.10
2018-07-17T18:35:41.138Z,4.77
2018-07-17T18:38:09.529Z,3.53
2018-07-17T18:40:38.002Z,4.23
2018-07-17T18:43:06.408Z,3.37
2018-07-17T18:45:34.843Z,3.53
2018-07-17T18:48:03.281Z,3.57
2018-07-17T18:50:31.723Z,4.50
2018-07-17T18:53:00.215Z,3.77
2018-07-17T18:55:28.619Z,3.50
2018-07-17T18:57:57.051Z,3.27
2018-07-17T19:00:25.543Z,3.30
2018-07-17T19:02:54.021Z,3.00
2018-07-17T19:05:22.476Z,3.60
2018-07-17T19:07:51.195Z,3.17
2018-07-17T19:10:19.619Z,3.20
2018-07-17T19:12:48.326Z,4.03
2018-07-17T19:15:16.893Z,2.77
2018-07-17T19:17:45.466Z,3.40
2018-07-17T19:20:14.075Z,3.47
2018-07-17T19:22:42.532Z,2.73
2018-07-17T19:25:11.200Z,4.03
2018-07-17T19:27:39.695Z,3.37
2018-07-17T19:30:08.300Z,2.90
2018-07-17T19:32:36.956Z,3.33
2018-07-17T19:35:05.342Z,3.10
2018-07-17T19:37:33.763Z,3.90
2018-07-17T19:40:02.303Z,3.63
2018-07-17T19:42:30.791Z,3.40
2018-07-17T19:44:59.599Z,3.30
2018-07-17T19:47:28.092Z,3.13
2018-07-17T19:49:56.639Z,3.03
2018-07-17T19:52:25.271Z,3.33
2018-07-17T19:54:54.128Z,3.70
2018-07-17T19:57:23.315Z,3.57
2018-07-17T19:59:52.072Z,3.10
2018-07-17T20:02:21.548Z,3.10
2018-07-17T20:04:49.984Z,3.03
2018-07-17T20:07:18.685Z,3.07
2018-07-17T20:09:47.124Z,3.70
2018-07-17T20:12:15.614Z,2.70
2018-07-17T20:14:44.129Z,3.23
2018-07-17T20:17:12.897Z,3.50
2018-07-17T20:19:41.456Z,2.73
2018-07-17T20:22:10.012Z,2.93
2018-07-17T20:24:38.411Z,3.33
2018-07-17T20:27:07.051Z,2.57
2018-07-17T20:29:35.562Z,2.70
2018-07-17T20:32:04.218Z,2.63
2018-07-17T20:34:32.905Z,2.57
2018-07-17T20:37:01.570Z,2.50
2018-07-17T20:39:30.145Z,2.20
2018-07-17T20:41:59.420Z,2.33
2018-07-17T20:44:27.957Z,2.30
2018-07-17T20:46:56.441Z,2.67
2018-07-17T20:49:25.058Z,3.03
2018-07-17T20:51:53.743Z,2.30
2018-07-17T20:54:22.457Z,2.53
2018-07-17T20:56:50.996Z,2.40
2018-07-17T20:59:19.516Z,2.83
2018-07-17T21:01:47.985Z,2.60
2018-07-17T21:04:16.423Z,2.37
2018-07-17T21:06:44.801Z,2.80
2018-07-17T21:09:13.310Z,2.53
2018-07-17T21:11:42.613Z,2.60
2018-07-17T21:14:11.071Z,2.40
2018-07-17T21:16:39.563Z,3.13
2018-07-17T21:19:08.013Z,2.40
2018-07-17T21:21:36.528Z,2.67
2018-07-17T21:24:04.933Z,2.33
2018-07-17T21:26:35.680Z,3.10
2018-07-17T21:29:04.356Z,2.97
2018-07-17T21:31:32.762Z,3.00
2018-07-17T21:34:01.291Z,3.20
2018-07-17T21:36:32.659Z,3.17
2018-07-17T21:39:01.033Z,2.97
2018-07-17T21:41:29.348Z,3.57
2018-07-17T21:43:57.932Z,3.30
2018-07-17T21:46:26.307Z,3.97
2018-07-17T21:48:54.472Z,4.20
2018-07-17T21:51:23.000Z,4.17
2018-07-17T21:53:51.375Z,3.97
2018-07-17T21:56:19.759Z,4.03
2018-07-17T21:58:48.169Z,3.57
2018-07-17T22:01:16.657Z,3.63
2018-07-17T22:03:45.211Z,3.47
2018-07-17T22:06:13.577Z,3.80
2018-07-17T22:08:42.159Z,4.17
2018-07-17T22:11:10.801Z,3.90
2018-07-17T22:13:39.192Z,4.13
2018-07-17T22:16:07.770Z,4.50
2018-07-17T22:18:36.884Z,4.87
2018-07-17T22:21:05.568Z,4.03
2018-07-17T22:23:33.935Z,4.80
2018-07-17T22:26:02.339Z,4.47
2018-07-17T22:28:30.745Z,4.30
2018-07-17T22:30:59.271Z,4.23
2018-07-17T22:33:27.695Z,4.50
2018-07-17T22:35:55.784Z,4.50
2018-07-17T22:38:24.226Z,4.60
2018-07-17T22:40:52.579Z,4.67
2018-07-17T22:43:21.079Z,4.77
2018-07-17T22:45:49.528Z,4.57
2018-07-17T22:48:17.979Z,4.37
2018-07-17T22:50:46.371Z,4.67
2018-07-17T22:53:14.807Z,4.57
2018-07-17T22:55:43.277Z,4.57
2018-07-17T22:58:11.675Z,4.60
2018-07-17T23:00:40.072Z,5.30
2018-07-17T23:03:08.526Z,5.43
2018-07-17T23:05:36.924Z,5.33
2018-07-17T23:08:05.488Z,5.67
2018-07-17T23:10:34.084Z,5.30
2018-07-17T23:13:03.268Z,5.00
2018-07-17T23:15:31.640Z,5.27
2018-07-17T23:18:00.163Z,5.70
2018-07-17T23:20:28.578Z,5.53
2018-07-17T23:22:58.060Z,5.73
2018-07-17T23:25:27.960Z,5.60
2018-07-17T23:27:57.102Z,4.23
2018-07-17T23:30:25.563Z,4.83
2018-07-17T23:32:54.988Z,4.87
2018-07-17T23:35:24.367Z,5.40
2018-07-17T23:37:53.327Z,4.33
2018-07-17T23:40:22.264Z,4.37
2018-07-17T23:42:50.635Z,5.00
2018-07-17T23:45:19.331Z,4.60
2018-07-17T23:47:48.427Z,5.30
2018-07-17T23:50:16.857Z,4.00
2018-07-17T23:52:45.293Z,5.13
2018-07-17T23:55:13.687Z,5.83
2018-07-17T23:57:42.102Z,5.80
